createdAt,value
2017-11-24T00:01:02.967Z,7.90
2017-11-24T00:03:31.036Z,7.90
2017-11-24T00:05:58.483Z,7.90
2017-11-24T00:08:26.043Z,7.80
2017-11-24T00:10:54.052Z,7.80
2017-11-24T00:13:22.300Z,7.70
2017-11-24T00:15:50.580Z,7.80
2017-11-24T00:18:18.084Z,7.70
2017-11-24T00:20:45.552Z,7.80
2017-11-24T00:23:13.028Z,7.90
2017-11-24T00:25:40.485Z,7.90
2017-11-24T00:28:07.950Z,7.90
2017-11-24T00:30:35.822Z,7.80
2017-11-24T00:33:03.301Z,7.70
2017-11-24T00:35:31.537Z,7.60
2017-11-24T00:37:59.001Z,7.50
2017-11-24T00:40:27.230Z,7.50
2017-11-24T00:42:54.704Z,7.40
2017-11-24T00:45:22.205Z,7.30
2017-11-24T00:47:49.676Z,7.20
2017-11-24T00:50:17.128Z,7.30
2017-11-24T00:52:44.607Z,7.30
2017-11-24T00:55:12.812Z,7.20
2017-11-24T00:57:40.285Z,7.20
2017-11-24T01:00:07.750Z,7.20
2017-11-24T01:02:35.997Z,7.00
2017-11-24T01:05:03.464Z,7.00
2017-11-24T01:07:30.916Z,7.10
2017-11-24T01:09:58.381Z,7.10
2017-11-24T01:12:25.840Z,7.20
2017-11-24T01:14:53.303Z,7.20
2017-11-24T01:17:20.784Z,7.30
2017-11-24T01:19:48.253Z,7.20
2017-11-24T01:22:15.694Z,7.20
2017-11-24T01:24:43.163Z,7.10
2017-11-24T01:27:10.636Z,7.10
2017-11-24T01:29:38.880Z,7.00
2017-11-24T01:32:06.344Z,7.00
2017-11-24T01:34:33.812Z,6.90
2017-11-24T01:37:01.259Z,6.90
2017-11-24T01:39:28.728Z,7.00
2017-11-24T01:41:56.956Z,7.00
2017-11-24T01:44:24.421Z,7.00
2017-11-24T01:46:51.871Z,7.10
2017-11-24T01:49:19.345Z,7.10
2017-11-24T01:51:46.800Z,7.10
2017-11-24T01:54:14.270Z,7.10
2017-11-24T01:56:41.823Z,7.20
2017-11-24T01:59:09.589Z,7.30
2017-11-24T02:01:37.150Z,7.30
2017-11-24T02:04:04.608Z,7.30
2017-11-24T02:06:32.064Z,7.30
2017-11-24T02:08:59.624Z,7.40
2017-11-24T02:11:27.180Z,7.40
2017-11-24T02:13:54.662Z,7.50
2017-11-24T02:16:22.126Z,7.80
2017-11-24T02:18:50.377Z,7.80
2017-11-24T02:21:17.845Z,7.80
2017-11-24T02:23:45.304Z,7.70
2017-11-24T02:26:12.769Z,7.70
2017-11-24T02:28:40.992Z,7.70
2017-11-24T02:31:08.458Z,7.70
2017-11-24T02:33:35.932Z,7.70
2017-11-24T02:36:03.397Z,7.70
2017-11-24T02:38:30.858Z,7.80
2017-11-24T02:40:58.413Z,7.80
2017-11-24T02:43:26.625Z,7.90
2017-11-24T02:45:54.098Z,7.90
2017-11-24T02:48:21.557Z,7.90
2017-11-24T02:50:49.016Z,7.80
2017-11-24T02:53:16.469Z,7.80
2017-11-24T02:55:43.936Z,7.80
2017-11-24T02:58:11.416Z,7.90
2017-11-24T03:00:39.805Z,7.90
2017-11-24T03:03:07.274Z,7.90
2017-11-24T03:05:34.740Z,8.00
2017-11-24T03:08:02.957Z,7.90
2017-11-24T03:10:30.421Z,7.90
2017-11-24T03:12:57.877Z,8.00
2017-11-24T03:15:25.341Z,8.00
2017-11-24T03:17:52.818Z,8.10
2017-11-24T03:20:20.373Z,8.00
2017-11-24T03:22:48.592Z,8.00
2017-11-24T03:25:16.072Z,8.00
2017-11-24T03:27:43.528Z,8.00
2017-11-24T03:30:10.991Z,8.00
2017-11-24T03:32:38.477Z,7.90
2017-11-24T03:35:05.938Z,7.90
2017-11-24T03:37:33.405Z,7.90
2017-11-24T03:40:00.949Z,7.90
2017-11-24T03:42:28.411Z,7.90
2017-11-24T03:44:55.863Z,7.90
2017-11-24T03:47:23.326Z,7.90
2017-11-24T03:49:50.777Z,8.00
2017-11-24T03:52:18.237Z,8.00
2017-11-24T03:54:45.697Z,8.00
2017-11-24T03:57:13.244Z,8.10
2017-11-24T03:59:40.709Z,8.20
2017-11-24T04:02:08.173Z,8.20
2017-11-24T04:04:35.675Z,8.20
2017-11-24T04:07:03.181Z,8.20
2017-11-24T04:09:30.637Z,8.20
2017-11-24T04:11:58.956Z,8.30
2017-11-24T04:14:26.992Z,8.30
2017-11-24T04:16:54.461Z,8.40
2017-11-24T04:19:22.685Z,8.40
2017-11-24T04:21:50.156Z,8.40
2017-11-24T04:24:17.612Z,8.40
2017-11-24T04:26:45.184Z,8.30
2017-11-24T04:29:12.640Z,8.30
2017-11-24T04:31:40.108Z,8.40
2017-11-24T04:34:07.564Z,8.40
2017-11-24T04:36:35.112Z,8.40
2017-11-24T04:39:04.085Z,8.40
2017-11-24T04:41:31.563Z,8.40
2017-11-24T04:43:59.028Z,8.40
2017-11-24T04:46:26.489Z,8.40
2017-11-24T04:48:54.036Z,8.40
2017-11-24T04:51:21.493Z,8.30
2017-11-24T04:53:48.961Z,8.40
2017-11-24T04:56:16.416Z,8.30
2017-11-24T04:58:43.885Z,8.30
2017-11-24T05:01:12.145Z,8.30
2017-11-24T05:03:39.601Z,8.30
2017-11-24T05:06:07.056Z,8.30
2017-11-24T05:08:34.524Z,8.20
2017-11-24T05:11:01.981Z,8.20
2017-11-24T05:13:29.440Z,8.30
2017-11-24T05:15:56.893Z,8.30
2017-11-24T05:18:24.357Z,8.30
2017-11-24T05:20:52.580Z,8.20
2017-11-24T05:23:20.077Z,8.20
2017-11-24T05:25:47.541Z,8.20
2017-11-24T05:28:15.012Z,8.30
2017-11-24T05:30:43.233Z,8.30
2017-11-24T05:33:10.701Z,8.20
2017-11-24T05:35:38.160Z,8.20
2017-11-24T05:38:05.624Z,8.20
2017-11-24T05:40:33.852Z,8.20
2017-11-24T05:43:01.419Z,8.20
2017-11-24T05:45:28.926Z,8.20
2017-11-24T05:47:56.396Z,8.20
2017-11-24T05:50:24.628Z,8.10
2017-11-24T05:52:52.113Z,8.10
2017-11-24T05:55:19.580Z,8.10
2017-11-24T05:57:47.850Z,8.00
2017-11-24T06:00:15.308Z,8.00
2017-11-24T06:02:43.271Z,8.00
2017-11-24T06:05:10.737Z,8.00
2017-11-24T06:07:38.804Z,7.90
2017-11-24T06:10:06.355Z,7.90
2017-11-24T06:12:33.817Z,7.90
2017-11-24T06:15:01.288Z,7.90
2017-11-24T06:17:28.738Z,7.90
2017-11-24T06:19:56.208Z,7.90
2017-11-24T06:22:24.466Z,8.00
2017-11-24T06:24:53.653Z,8.00
2017-11-24T06:27:21.117Z,8.00
2017-11-24T06:29:48.584Z,8.00
2017-11-24T06:32:16.040Z,7.90
2017-11-24T06:34:43.513Z,7.90
2017-11-24T06:37:11.739Z,7.90
2017-11-24T06:39:39.212Z,7.90
2017-11-24T06:42:06.730Z,7.90
2017-11-24T06:44:34.196Z,7.90
2017-11-24T06:47:01.689Z,7.90
2017-11-24T06:49:29.668Z,7.90
2017-11-24T06:51:57.128Z,7.90
2017-11-24T06:54:25.445Z,7.90
2017-11-24T06:56:53.420Z,7.90
2017-11-24T06:59:20.900Z,7.90
2017-11-24T07:01:48.376Z,7.80
2017-11-24T07:04:15.843Z,7.80
2017-11-24T07:06:44.605Z,7.80
2017-11-24T07:09:12.057Z,7.80
2017-11-24T07:11:39.640Z,7.70
2017-11-24T07:14:07.098Z,7.70
2017-11-24T07:16:34.570Z,7.60
2017-11-24T07:19:02.788Z,7.70
2017-11-24T07:21:30.252Z,7.60
2017-11-24T07:23:57.748Z,7.70
2017-11-24T07:26:25.288Z,7.80
2017-11-24T07:28:53.156Z,8.20
2017-11-24T07:31:20.733Z,8.60
2017-11-24T07:33:48.190Z,8.80
2017-11-24T07:36:15.745Z,9.00
2017-11-24T07:38:43.192Z,9.30
2017-11-24T07:41:10.660Z,9.30
2017-11-24T07:43:38.140Z,9.10
2017-11-24T07:46:07.850Z,8.70
2017-11-24T07:48:36.071Z,8.60
2017-11-24T07:51:03.542Z,8.50
2017-11-24T07:53:30.997Z,8.30
2017-11-24T07:55:58.565Z,8.20
2017-11-24T07:58:26.021Z,7.90
2017-11-24T08:00:53.591Z,8.00
2017-11-24T08:03:21.045Z,8.00
2017-11-24T08:05:48.529Z,8.00
2017-11-24T08:08:16.778Z,8.10
2017-11-24T08:10:44.926Z,8.10
2017-11-24T08:13:12.589Z,8.00
2017-11-24T08:15:40.091Z,8.00
2017-11-24T08:18:08.373Z,8.10
2017-11-24T08:20:35.945Z,8.10
2017-11-24T08:23:03.462Z,8.00
2017-11-24T08:25:31.209Z,7.90
2017-11-24T08:27:59.501Z,7.90
2017-11-24T08:30:27.053Z,7.90
2017-11-24T08:32:54.525Z,7.90
2017-11-24T08:35:21.977Z,7.80
2017-11-24T08:37:49.432Z,7.90
2017-11-24T08:40:16.946Z,7.90
2017-11-24T08:42:44.437Z,7.90
2017-11-24T08:45:12.716Z,7.70
2017-11-24T08:47:45.921Z,7.70
2017-11-24T08:50:13.374Z,7.70
2017-11-24T08:52:40.833Z,7.80
2017-11-24T08:55:08.380Z,7.70
2017-11-24T08:57:35.937Z,7.70
2017-11-24T09:00:03.496Z,7.70
2017-11-24T09:02:30.976Z,7.80
2017-11-24T09:04:59.228Z,7.80
2017-11-24T09:07:26.692Z,7.80
2017-11-24T09:09:54.149Z,7.90
2017-11-24T09:12:22.392Z,8.00
2017-11-24T09:14:50.258Z,8.00
2017-11-24T09:17:17.740Z,8.00
2017-11-24T09:19:45.201Z,7.90
2017-11-24T09:22:13.372Z,7.90
2017-11-24T09:24:41.140Z,7.90
2017-11-24T09:27:08.607Z,8.00
2017-11-24T09:29:36.061Z,8.00
2017-11-24T09:32:03.536Z,8.00
2017-11-24T09:34:31.760Z,8.10
2017-11-24T09:36:59.229Z,8.10
2017-11-24T09:39:26.708Z,8.20
2017-11-24T09:41:54.560Z,8.40
2017-11-24T09:44:22.829Z,8.60
2017-11-24T09:46:50.276Z,8.80
2017-11-24T09:49:17.860Z,9.30
2017-11-24T09:51:45.524Z,9.50
2017-11-24T09:54:12.982Z,9.90
2017-11-24T09:56:40.445Z,10.10
2017-11-24T09:59:07.992Z,10.20
2017-11-24T10:01:35.972Z,10.30
2017-11-24T10:04:03.440Z,10.20
2017-11-24T10:06:31.681Z,10.70
2017-11-24T10:08:59.455Z,10.70
2017-11-24T10:11:27.014Z,10.70
2017-11-24T10:13:54.488Z,10.20
2017-11-24T10:16:22.718Z,10.40
2017-11-24T10:18:50.199Z,10.40
2017-11-24T10:21:23.348Z,10.90
2017-11-24T10:23:50.856Z,10.90
2017-11-24T10:26:18.321Z,11.00
2017-11-24T10:28:46.896Z,10.90
2017-11-24T10:31:14.556Z,10.90
2017-11-24T10:33:42.109Z,10.80
2017-11-24T10:36:09.663Z,10.70
2017-11-24T10:38:37.228Z,10.90
2017-11-24T10:41:04.688Z,10.90
2017-11-24T10:43:32.165Z,10.80
2017-11-24T10:46:00.395Z,10.80
2017-11-24T10:48:27.864Z,10.80
2017-11-24T10:50:55.339Z,11.00
2017-11-24T10:53:22.827Z,10.90
2017-11-24T10:55:50.294Z,11.10
2017-11-24T10:58:17.763Z,10.90
2017-11-24T11:00:46.037Z,10.80
2017-11-24T11:03:13.495Z,10.40
2017-11-24T11:05:40.962Z,10.20
2017-11-24T11:08:08.412Z,9.60
2017-11-24T11:10:35.889Z,9.20
2017-11-24T11:13:03.367Z,9.00
2017-11-24T11:15:31.611Z,8.90
2017-11-24T11:17:59.065Z,8.90
2017-11-24T11:20:26.529Z,8.90
2017-11-24T11:22:53.989Z,8.80
2017-11-24T11:25:21.523Z,8.80
2017-11-24T11:27:48.979Z,8.70
2017-11-24T11:30:16.544Z,8.60
2017-11-24T11:32:44.665Z,8.50
2017-11-24T11:35:12.216Z,8.50
2017-11-24T11:37:39.727Z,8.20
2017-11-24T11:40:07.205Z,8.20
2017-11-24T11:42:34.653Z,8.40
2017-11-24T11:45:02.130Z,8.40
2017-11-24T11:47:29.584Z,8.50
2017-11-24T11:49:57.078Z,8.40
2017-11-24T11:52:25.293Z,8.40
2017-11-24T11:54:52.761Z,8.30
2017-11-24T11:57:20.217Z,8.30
2017-11-24T11:59:47.684Z,8.20
2017-11-24T12:02:15.144Z,8.20
2017-11-24T12:04:42.616Z,8.30
2017-11-24T12:07:10.083Z,8.20
2017-11-24T12:09:37.536Z,8.20
2017-11-24T12:12:05.006Z,8.20
2017-11-24T12:14:33.230Z,8.30
2017-11-24T12:17:00.704Z,8.30
2017-11-24T12:19:28.158Z,8.20
2017-11-24T12:21:55.626Z,8.10
2017-11-24T12:24:23.073Z,8.00
2017-11-24T12:26:50.543Z,8.40
2017-11-24T12:29:18.057Z,8.50
2017-11-24T12:31:45.577Z,8.50
2017-11-24T12:34:13.814Z,9.20
2017-11-24T12:36:41.301Z,9.20
2017-11-24T12:39:08.765Z,8.90
2017-11-24T12:41:36.366Z,8.90
2017-11-24T12:44:03.824Z,9.10
2017-11-24T12:46:31.289Z,9.00
2017-11-24T12:48:58.805Z,8.90
2017-11-24T12:51:27.037Z,8.80
2017-11-24T12:53:54.570Z,8.80
2017-11-24T12:56:22.037Z,8.70
2017-11-24T12:58:49.493Z,8.70
2017-11-24T13:01:16.961Z,8.30
2017-11-24T13:03:44.420Z,8.00
2017-11-24T13:06:11.889Z,7.90
2017-11-24T13:08:39.357Z,8.40
2017-11-24T13:11:06.826Z,8.70
2017-11-24T13:13:34.281Z,8.90
2017-11-24T13:16:01.837Z,9.20
2017-11-24T13:18:29.297Z,9.10
2017-11-24T13:20:56.841Z,8.80
2017-11-24T13:23:24.306Z,8.40
2017-11-24T13:25:51.757Z,8.30
2017-11-24T13:28:20.733Z,8.50
2017-11-24T13:30:48.190Z,8.50
2017-11-24T13:33:15.657Z,8.50
2017-11-24T13:35:43.220Z,8.30
2017-11-24T13:38:10.781Z,8.60
2017-11-24T13:40:38.342Z,8.70
2017-11-24T13:43:05.958Z,8.50
2017-11-24T13:45:33.456Z,8.50
2017-11-24T13:48:00.927Z,8.70
2017-11-24T13:50:29.889Z,8.80
2017-11-24T13:52:57.349Z,8.80
2017-11-24T13:55:24.824Z,8.80
2017-11-24T13:57:52.283Z,8.80
2017-11-24T14:00:19.741Z,8.70
2017-11-24T14:02:47.204Z,8.70
2017-11-24T14:05:14.680Z,8.90
2017-11-24T14:07:42.982Z,8.70
2017-11-24T14:10:10.485Z,8.70
2017-11-24T14:12:37.949Z,8.80
2017-11-24T14:15:05.407Z,8.80
2017-11-24T14:17:33.477Z,8.80
2017-11-24T14:20:01.024Z,8.80
2017-11-24T14:22:28.589Z,8.70
2017-11-24T14:24:56.960Z,8.60
2017-11-24T14:27:24.478Z,8.60
2017-11-24T14:29:52.039Z,8.40
2017-11-24T14:32:19.567Z,8.50
2017-11-24T14:34:47.797Z,8.90
2017-11-24T14:37:15.273Z,8.90
2017-11-24T14:39:42.760Z,8.90
2017-11-24T14:42:10.988Z,8.80
2017-11-24T14:44:38.565Z,8.80
2017-11-24T14:47:06.025Z,8.90
2017-11-24T14:49:33.685Z,8.90
2017-11-24T14:52:01.348Z,8.90
2017-11-24T14:54:28.905Z,8.90
2017-11-24T14:56:56.361Z,8.80
2017-11-24T14:59:23.937Z,8.70
2017-11-24T15:01:52.167Z,8.50
2017-11-24T15:04:19.633Z,8.50
2017-11-24T15:06:47.104Z,8.30
2017-11-24T15:09:15.085Z,8.20
2017-11-24T15:11:42.544Z,8.30
2017-11-24T15:14:10.012Z,8.20
2017-11-24T15:16:38.243Z,8.40
2017-11-24T15:19:05.713Z,8.40
2017-11-24T15:21:33.185Z,8.40
2017-11-24T15:24:00.662Z,8.30
2017-11-24T15:26:28.885Z,8.50
2017-11-24T15:28:56.354Z,8.40
2017-11-24T15:31:23.840Z,8.00
2017-11-24T15:33:51.339Z,8.00
2017-11-24T15:36:19.314Z,8.00
2017-11-24T15:38:46.813Z,7.80
2017-11-24T15:41:14.472Z,7.80
2017-11-24T15:43:42.145Z,7.90
2017-11-24T15:46:09.696Z,7.90
2017-11-24T15:48:37.270Z,8.00
2017-11-24T15:51:05.511Z,8.10
2017-11-24T15:53:32.972Z,8.10
2017-11-24T15:56:00.504Z,8.00
2017-11-24T15:58:27.965Z,8.00
2017-11-24T16:00:55.440Z,8.00
2017-11-24T16:03:23.013Z,8.40
2017-11-24T16:05:50.493Z,8.20
2017-11-24T16:08:18.549Z,8.20
2017-11-24T16:10:46.111Z,8.10
2017-11-24T16:13:13.579Z,7.90
2017-11-24T16:15:41.832Z,7.70
2017-11-24T16:18:09.401Z,7.60
2017-11-24T16:20:36.870Z,7.50
2017-11-24T16:23:05.107Z,7.30
2017-11-24T16:25:32.578Z,7.30
2017-11-24T16:28:00.099Z,7.20
2017-11-24T16:30:27.565Z,7.10
2017-11-24T16:32:55.114Z,7.00
2017-11-24T16:35:22.641Z,6.90
2017-11-24T16:37:50.892Z,6.90
2017-11-24T16:40:18.458Z,6.80
2017-11-24T16:42:46.786Z,6.80
2017-11-24T16:45:14.252Z,6.80
2017-11-24T16:47:41.753Z,6.80
2017-11-24T16:50:09.254Z,6.60
2017-11-24T16:52:36.763Z,6.60
2017-11-24T16:55:04.331Z,6.60
2017-11-24T16:57:31.880Z,6.50
2017-11-24T16:59:59.433Z,6.40
2017-11-24T17:02:26.902Z,6.40
2017-11-24T17:04:54.375Z,6.30
2017-11-24T17:07:22.612Z,6.20
2017-11-24T17:09:50.089Z,6.20
2017-11-24T17:12:17.553Z,6.30
2017-11-24T17:14:45.014Z,6.20
2017-11-24T17:17:12.557Z,6.20
2017-11-24T17:19:40.171Z,6.20
2017-11-24T17:22:07.637Z,6.20
2017-11-24T17:24:36.210Z,6.30
2017-11-24T17:27:03.680Z,6.30
2017-11-24T17:29:31.174Z,6.30
2017-11-24T17:31:58.652Z,6.30
2017-11-24T17:34:26.881Z,6.20
2017-11-24T17:36:54.364Z,6.20
2017-11-24T17:39:21.820Z,6.20
2017-11-24T17:41:49.345Z,6.10
2017-11-24T17:44:17.357Z,6.10
2017-11-24T17:46:44.830Z,6.10
2017-11-24T17:49:13.063Z,6.10
2017-11-24T17:51:40.533Z,6.00
2017-11-24T17:54:08.096Z,6.10
2017-11-24T17:56:35.653Z,6.00
2017-11-24T17:59:04.700Z,6.00
2017-11-24T18:01:32.422Z,6.00
2017-11-24T18:03:59.893Z,6.00
2017-11-24T18:06:28.141Z,5.90
2017-11-24T18:08:55.609Z,5.90
2017-11-24T18:11:23.083Z,5.90
2017-11-24T18:13:51.334Z,5.80
2017-11-24T18:16:18.802Z,5.80
2017-11-24T18:18:47.068Z,5.80
2017-11-24T18:21:14.532Z,5.80
2017-11-24T18:23:42.033Z,5.80
2017-11-24T18:26:09.496Z,5.80
2017-11-24T18:28:36.984Z,5.80
2017-11-24T18:31:04.509Z,5.70
2017-11-24T18:33:31.972Z,5.60
2017-11-24T18:35:59.434Z,5.40
2017-11-24T18:38:26.915Z,5.40
2017-11-24T18:40:54.376Z,5.20
2017-11-24T18:43:22.339Z,5.20
2017-11-24T18:45:49.800Z,5.10
2017-11-24T18:48:17.290Z,5.00
2017-11-24T18:50:45.524Z,4.70
2017-11-24T18:53:13.006Z,4.70
2017-11-24T18:55:40.469Z,4.60
2017-11-24T18:58:08.785Z,4.20
2017-11-24T19:00:36.269Z,4.10
2017-11-24T19:03:04.205Z,4.00
2017-11-24T19:05:31.665Z,3.90
2017-11-24T19:07:59.140Z,3.70
2017-11-24T19:10:26.601Z,3.60
2017-11-24T19:12:54.084Z,3.70
2017-11-24T19:15:22.346Z,3.90
2017-11-24T19:17:49.928Z,3.90
2017-11-24T19:20:18.192Z,3.90
2017-11-24T19:22:45.862Z,3.90
2017-11-24T19:25:13.338Z,3.90
2017-11-24T19:27:40.820Z,3.80
2017-11-24T19:30:08.281Z,3.80
2017-11-24T19:32:35.774Z,3.70
2017-11-24T19:35:03.267Z,3.70
2017-11-24T19:37:30.901Z,3.50
2017-11-24T19:39:58.381Z,3.50
2017-11-24T19:42:25.913Z,3.40
2017-11-24T19:44:53.480Z,3.40
2017-11-24T19:47:20.942Z,3.20
2017-11-24T19:49:48.421Z,3.20
2017-11-24T19:52:16.717Z,3.00
2017-11-24T19:54:44.186Z,3.00
2017-11-24T19:57:11.652Z,3.10
2017-11-24T19:59:39.503Z,3.10
2017-11-24T20:02:06.965Z,3.00
2017-11-24T20:04:34.438Z,3.00
2017-11-24T20:07:01.892Z,2.90
2017-11-24T20:09:29.376Z,2.90
2017-11-24T20:11:56.838Z,2.90
2017-11-24T20:14:24.404Z,2.80
2017-11-24T20:16:51.864Z,2.90
2017-11-24T20:19:20.176Z,2.90
2017-11-24T20:21:47.688Z,2.90
2017-11-24T20:24:15.156Z,2.90
2017-11-24T20:26:43.389Z,2.90
2017-11-24T20:29:10.893Z,2.90
2017-11-24T20:31:39.144Z,2.80
2017-11-24T20:34:06.619Z,2.80
2017-11-24T20:36:34.840Z,2.80
2017-11-24T20:39:02.390Z,2.80
2017-11-24T20:41:30.096Z,2.80
2017-11-24T20:43:57.711Z,2.70
2017-11-24T20:46:25.212Z,2.70
2017-11-24T20:48:52.688Z,2.70
2017-11-24T20:51:20.917Z,2.70
2017-11-24T20:53:48.376Z,2.70
2017-11-24T20:56:16.296Z,2.70
2017-11-24T20:58:44.602Z,2.60
2017-11-24T21:01:12.108Z,2.60
2017-11-24T21:03:39.561Z,2.60
2017-11-24T21:06:07.125Z,2.70
2017-11-24T21:08:35.802Z,2.80
2017-11-24T21:11:03.290Z,2.80
2017-11-24T21:13:31.545Z,2.80
2017-11-24T21:15:59.029Z,2.80
2017-11-24T21:18:27.252Z,2.90
2017-11-24T21:20:54.724Z,2.80
2017-11-24T21:23:22.207Z,2.90
2017-11-24T21:25:50.442Z,2.90
2017-11-24T21:28:17.900Z,2.90
2017-11-24T21:30:45.369Z,2.90
2017-11-24T21:33:12.828Z,2.90
2017-11-24T21:35:40.300Z,2.90
2017-11-24T21:38:07.882Z,2.90
2017-11-24T21:40:35.357Z,3.00
2017-11-24T21:43:02.860Z,3.00
2017-11-24T21:45:30.359Z,3.10
2017-11-24T21:47:57.963Z,3.20
2017-11-24T21:50:25.448Z,3.20
2017-11-24T21:52:52.992Z,3.10
2017-11-24T21:55:20.456Z,3.20
2017-11-24T21:57:47.924Z,3.20
2017-11-24T22:00:16.188Z,3.20
2017-11-24T22:02:43.657Z,3.20
2017-11-24T22:05:11.975Z,3.40
2017-11-24T22:07:39.536Z,3.40
2017-11-24T22:10:06.996Z,3.50
2017-11-24T22:12:34.501Z,3.50
2017-11-24T22:15:03.488Z,3.50
2017-11-24T22:17:31.046Z,3.50
2017-11-24T22:19:58.512Z,3.60
2017-11-24T22:22:25.988Z,3.60
2017-11-24T22:24:54.838Z,3.70
2017-11-24T22:27:22.322Z,3.70
2017-11-24T22:29:49.781Z,3.70
2017-11-24T22:32:17.253Z,3.70
2017-11-24T22:34:45.476Z,3.80
2017-11-24T22:37:12.985Z,3.80
2017-11-24T22:39:41.213Z,3.90
2017-11-24T22:42:09.485Z,3.80
2017-11-24T22:44:36.945Z,3.90
2017-11-24T22:47:04.437Z,3.90
2017-11-24T22:49:32.664Z,3.80
2017-11-24T22:52:00.137Z,3.90
2017-11-24T22:54:27.592Z,3.80
2017-11-24T22:56:55.118Z,3.90
2017-11-24T22:59:22.568Z,3.90
2017-11-24T23:01:50.037Z,3.90
2017-11-24T23:04:17.506Z,4.00
2017-11-24T23:06:44.964Z,4.10
2017-11-24T23:09:12.429Z,4.10
2017-11-24T23:11:39.893Z,4.20
2017-11-24T23:14:07.360Z,4.20
2017-11-24T23:16:34.860Z,4.20
2017-11-24T23:19:02.374Z,4.20
2017-11-24T23:21:29.828Z,4.20
2017-11-24T23:23:57.504Z,4.20
2017-11-24T23:26:24.961Z,4.20
2017-11-24T23:28:52.428Z,4.20
2017-11-24T23:31:20.685Z,3.90
2017-11-24T23:33:48.475Z,3.90
2017-11-24T23:36:16.702Z,3.70
2017-11-24T23:38:44.163Z,3.70
2017-11-24T23:41:11.625Z,3.70
2017-11-24T23:43:39.092Z,3.70
2017-11-24T23:46:06.548Z,3.80
2017-11-24T23:48:34.022Z,3.80
2017-11-24T23:51:01.476Z,3.80
2017-11-24T23:53:28.945Z,3.90
2017-11-24T23:55:57.171Z,4.00
2017-11-24T23:58:25.425Z,4.00
